Time;durP1;ratioP1;P1;durP2;ratioP2;P2;SDS_P1;SDS_P2;PMS_P1;PMS_P2;Temp;Humidity;BMP_temperature;BMP_pressure;BME280_temperature;BME280_humidity;BME280_pressure;Samples;Min_cycle;Max_cycle;Signal;HPM_P1;HPM_P2
2023/07/29 00:00:39;;;;;;;7.60;6.03;;;19.30;99.90;;;;;;4896044;28;20068;-57
2023/07/29 00:03:09;;;;;;;8.55;6.10;;;19.30;99.90;;;;;;4932854;28;20058;-57
2023/07/29 00:05:38;;;;;;;8.20;6.28;;;19.30;99.90;;;;;;4952512;28;20070;-57
2023/07/29 00:08:22;;;;;;;9.15;6.55;;;19.30;99.90;;;;;;4950695;28;20157;-56
2023/07/29 00:10:48;;;;;;;8.75;6.88;;;19.20;99.90;;;;;;4921305;28;20055;-57
2023/07/29 00:13:23;;;;;;;10.38;7.10;;;19.20;99.90;;;;;;4951729;28;20051;-58
2023/07/29 00:15:48;;;;;;;11.60;7.03;;;19.20;99.90;;;;;;4933068;28;20046;-58
2023/07/29 00:18:20;;;;;;;9.73;6.80;;;19.20;99.90;;;;;;4944565;28;20093;-56
2023/07/29 00:20:58;;;;;;;7.93;6.93;;;19.20;99.90;;;;;;4954612;28;20086;-57
2023/07/29 00:23:27;;;;;;;8.60;6.65;;;19.20;99.90;;;;;;4955609;28;20089;-57
2023/07/29 00:25:53;;;;;;;11.15;6.82;;;19.20;99.90;;;;;;4938590;28;20054;-58
2023/07/29 00:28:19;;;;;;;10.85;7.18;;;19.10;99.90;;;;;;4954526;28;21948;-58
2023/07/29 00:30:50;;;;;;;8.93;7.05;;;19.10;99.90;;;;;;4954498;28;20050;-57
2023/07/29 00:33:24;;;;;;;10.10;7.10;;;19.10;99.90;;;;;;4952872;28;20043;-55
2023/07/29 00:36:01;;;;;;;9.32;7.18;;;19.10;99.90;;;;;;4943785;28;20051;-57
2023/07/29 00:38:31;;;;;;;9.48;7.13;;;19.00;99.90;;;;;;4951842;28;20047;-57
2023/07/29 00:41:08;;;;;;;11.18;7.43;;;19.00;99.90;;;;;;4938721;28;20536;-57
2023/07/29 00:43:38;;;;;;;11.48;7.88;;;19.00;99.90;;;;;;4946425;28;20079;-56
2023/07/29 00:46:06;;;;;;;10.90;7.95;;;19.00;99.90;;;;;;4955691;28;20050;-57
2023/07/29 00:48:36;;;;;;;11.60;7.28;;;19.00;99.90;;;;;;4952103;28;20051;-57
2023/07/29 00:51:12;;;;;;;9.07;7.35;;;19.00;99.90;;;;;;4937785;28;20509;-57
2023/07/29 00:53:40;;;;;;;11.00;7.63;;;19.00;99.90;;;;;;4953134;28;20560;-53
2023/07/29 00:56:16;;;;;;;9.32;7.13;;;19.00;99.90;;;;;;4953131;28;20161;-56
2023/07/29 00:58:47;;;;;;;8.35;7.45;;;18.90;99.90;;;;;;4966212;28;20117;-57
2023/07/29 01:01:21;;;;;;;14.27;7.95;;;18.90;99.90;;;;;;4945923;28;20055;-57
2023/07/29 01:03:50;;;;;;;8.32;7.45;;;18.90;99.90;;;;;;4954734;28;20046;-56
2023/07/29 01:06:32;;;;;;;11.40;8.07;;;18.90;99.90;;;;;;4954305;28;20116;-57
2023/07/29 01:09:25;;;;;;;9.90;7.45;;;18.80;99.90;;;;;;4945819;28;20058;-56
2023/07/29 01:11:50;;;;;;;14.40;8.68;;;18.80;99.90;;;;;;4952530;28;20088;-57
2023/07/29 01:14:44;;;;;;;9.38;8.27;;;18.80;99.90;;;;;;4950153;28;20054;-57
2023/07/29 01:17:38;;;;;;;8.65;7.57;;;18.80;99.90;;;;;;4951149;28;20038;-58
2023/07/29 01:20:30;;;;;;;10.98;7.80;;;18.80;99.90;;;;;;4939757;28;20047;-57
2023/07/29 01:23:09;;;;;;;10.05;7.85;;;18.80;99.90;;;;;;4950090;28;20051;-57
2023/07/29 01:25:41;;;;;;;12.43;8.25;;;18.70;99.90;;;;;;4950331;28;20078;-58
2023/07/29 01:28:16;;;;;;;9.00;6.97;;;18.70;99.90;;;;;;4951943;28;20066;-56
2023/07/29 01:30:47;;;;;;;10.38;7.90;;;18.70;99.90;;;;;;4937149;28;20050;-56
2023/07/29 01:33:30;;;;;;;10.40;7.85;;;18.70;99.90;;;;;;4951242;28;20375;-58
2023/07/29 01:36:24;;;;;;;11.02;7.53;;;18.70;99.90;;;;;;4951168;28;20528;-58
2023/07/29 01:38:56;;;;;;;9.63;7.85;;;18.70;99.90;;;;;;4951002;28;20053;-57
2023/07/29 01:41:26;;;;;;;9.80;8.15;;;18.60;99.90;;;;;;4950272;28;20046;-56
2023/07/29 01:43:54;;;;;;;9.70;7.80;;;18.60;99.90;;;;;;4940946;28;20058;-56
2023/07/29 01:46:40;;;;;;;9.30;7.60;;;18.60;99.90;;;;;;4949770;28;20053;-57
2023/07/29 01:49:09;;;;;;;9.52;8.27;;;18.50;99.90;;;;;;4953568;28;20450;-57
2023/07/29 01:51:36;;;;;;;10.32;7.85;;;18.50;99.90;;;;;;4922756;28;20124;-56
2023/07/29 01:54:07;;;;;;;10.77;7.50;;;18.50;99.90;;;;;;4932256;28;20055;-57
2023/07/29 01:56:32;;;;;;;9.80;7.97;;;18.40;99.90;;;;;;4951760;28;20097;-57
2023/07/29 01:59:02;;;;;;;9.30;7.43;;;18.40;99.90;;;;;;4936090;28;20497;-57
2023/07/29 02:01:33;;;;;;;12.95;8.32;;;18.30;99.90;;;;;;4950681;28;20153;-58
2023/07/29 02:03:59;;;;;;;11.40;8.27;;;18.30;99.90;;;;;;4948964;28;20051;-58
2023/07/29 02:06:44;;;;;;;14.23;8.68;;;18.30;99.90;;;;;;4948973;28;20043;-56
2023/07/29 02:09:09;;;;;;;10.27;8.40;;;18.20;99.90;;;;;;4953560;28;20117;-57
2023/07/29 02:11:40;;;;;;;11.98;8.50;;;18.20;99.90;;;;;;4951734;28;20050;-57
2023/07/29 02:14:11;;;;;;;11.68;8.35;;;18.20;99.90;;;;;;4952337;28;20456;-57
2023/07/29 02:16:41;;;;;;;11.70;8.68;;;18.10;99.90;;;;;;4950493;28;21942;-58
2023/07/29 02:19:09;;;;;;;11.70;9.38;;;18.10;99.90;;;;;;4923045;28;20533;-57
2023/07/29 02:21:36;;;;;;;9.57;8.57;;;18.10;99.90;;;;;;4921032;28;20589;-57
2023/07/29 02:24:05;;;;;;;13.63;8.68;;;18.10;99.90;;;;;;4953865;28;20047;-57
2023/07/29 02:26:32;;;;;;;11.15;8.75;;;18.00;99.90;;;;;;4936785;28;20560;-58
2023/07/29 02:29:08;;;;;;;12.48;8.70;;;18.00;99.90;;;;;;4953629;28;20050;-58
2023/07/29 02:31:44;;;;;;;9.93;8.20;;;18.00;99.90;;;;;;4947667;28;20063;-59
2023/07/29 02:34:12;;;;;;;11.32;8.88;;;18.00;99.90;;;;;;4952842;28;20509;-58
2023/07/29 02:36:39;;;;;;;12.05;9.00;;;17.90;99.90;;;;;;4948165;28;20058;-58
2023/07/29 02:39:29;;;;;;;10.88;8.68;;;17.90;99.90;;;;;;4953290;28;20790;-57
2023/07/29 02:41:58;;;;;;;11.82;8.73;;;17.90;99.90;;;;;;4950280;28;20047;-57
2023/07/29 02:44:28;;;;;;;13.77;9.32;;;17.80;99.90;;;;;;4951135;28;20817;-56
2023/07/29 02:46:59;;;;;;;11.25;8.27;;;17.80;99.90;;;;;;4936369;28;20046;-58
2023/07/29 02:49:27;;;;;;;11.13;8.65;;;17.80;99.90;;;;;;4934936;28;20132;-56
2023/07/29 02:51:53;;;;;;;13.07;8.43;;;17.80;99.90;;;;;;4950396;28;20054;-57
2023/07/29 02:54:28;;;;;;;10.98;8.35;;;17.70;99.90;;;;;;4934653;28;20050;-57
2023/07/29 02:56:56;;;;;;;11.48;8.30;;;17.70;99.90;;;;;;4951383;28;20481;-57
2023/07/29 02:59:24;;;;;;;9.73;7.93;;;17.70;99.90;;;;;;4935786;28;20055;-57
2023/07/29 03:01:50;;;;;;;12.18;8.52;;;17.70;99.90;;;;;;4903973;28;20526;-58
2023/07/29 03:04:25;;;;;;;13.00;8.55;;;17.70;99.90;;;;;;4952615;28;20046;-58
2023/07/29 03:06:53;;;;;;;11.50;8.93;;;17.60;99.90;;;;;;4951568;28;20050;-57
2023/07/29 03:09:24;;;;;;;9.65;7.97;;;17.70;99.90;;;;;;4939354;28;20086;-58
2023/07/29 03:12:10;;;;;;;11.73;8.48;;;17.60;99.90;;;;;;4956318;28;20050;-57
2023/07/29 03:14:38;;;;;;;11.80;8.77;;;17.60;99.90;;;;;;4951107;28;20074;-56
2023/07/29 03:17:07;;;;;;;10.95;8.20;;;17.60;99.90;;;;;;4955179;28;20451;-56
2023/07/29 03:19:35;;;;;;;10.45;8.18;;;17.60;99.90;;;;;;4952753;28;20046;-57
2023/07/29 03:22:02;;;;;;;10.68;8.48;;;17.50;99.90;;;;;;4954998;28;20065;-57
2023/07/29 03:24:36;;;;;;;11.48;8.55;;;17.50;99.90;;;;;;4938820;28;20125;-57
2023/07/29 03:27:15;;;;;;;10.52;7.82;;;17.50;99.90;;;;;;4954093;28;20051;-58
2023/07/29 03:29:44;;;;;;;11.98;7.90;;;17.50;99.90;;;;;;4936497;28;20054;-58
2023/07/29 03:32:17;;;;;;;14.32;8.20;;;17.40;99.90;;;;;;4953944;28;20101;-57
2023/07/29 03:34:50;;;;;;;12.93;8.15;;;17.40;99.90;;;;;;4937125;28;20051;-58
2023/07/29 03:37:19;;;;;;;9.93;7.95;;;17.40;99.90;;;;;;4954005;28;20126;-57
2023/07/29 03:39:52;;;;;;;10.32;8.35;;;17.40;99.90;;;;;;4953569;28;20426;-57
2023/07/29 03:42:23;;;;;;;11.05;8.20;;;17.40;99.90;;;;;;4952381;28;20575;-58
2023/07/29 03:44:57;;;;;;;11.25;8.18;;;17.30;99.90;;;;;;4921513;28;20049;-57
2023/07/29 03:47:22;;;;;;;9.45;7.93;;;17.30;99.90;;;;;;4952928;28;20481;-57
2023/07/29 03:50:06;;;;;;;13.27;8.70;;;17.30;99.90;;;;;;4936879;28;20047;-58
2023/07/29 03:52:32;;;;;;;13.57;8.40;;;17.30;99.90;;;;;;4952452;28;20093;-58
2023/07/29 03:55:03;;;;;;;11.35;8.18;;;17.20;99.90;;;;;;4915094;28;20561;-58
2023/07/29 03:57:37;;;;;;;11.82;8.52;;;17.20;99.90;;;;;;4952830;28;20118;-57
2023/07/29 04:00:07;;;;;;;11.73;8.23;;;17.20;99.90;;;;;;4950148;28;20926;-57
2023/07/29 04:02:38;;;;;;;15.35;8.35;;;17.10;99.90;;;;;;4943280;28;20386;-57
2023/07/29 04:05:09;;;;;;;12.23;8.40;;;17.10;99.90;;;;;;4952014;28;20049;-58
2023/07/29 04:07:44;;;;;;;15.80;8.57;;;17.10;99.90;;;;;;4947067;28;20047;-58
2023/07/29 04:10:15;;;;;;;12.23;8.25;;;17.10;99.90;;;;;;4955672;28;20172;-58
2023/07/29 04:12:42;;;;;;;12.77;7.75;;;17.10;99.90;;;;;;4954491;28;20102;-58
2023/07/29 04:15:10;;;;;;;13.55;8.20;;;17.10;99.90;;;;;;4950661;28;20059;-57
2023/07/29 04:17:39;;;;;;;12.38;8.02;;;17.10;99.90;;;;;;4951477;28;20046;-57
2023/07/29 04:20:14;;;;;;;16.25;8.30;;;17.10;99.90;;;;;;4950552;28;20981;-58
2023/07/29 04:22:44;;;;;;;15.90;8.27;;;17.10;99.90;;;;;;4952049;28;20047;-56
2023/07/29 04:25:15;;;;;;;10.73;7.75;;;17.10;99.90;;;;;;4952684;28;20043;-56
2023/07/29 04:27:44;;;;;;;10.55;7.60;;;17.00;99.90;;;;;;4955058;28;20133;-57
2023/07/29 04:30:18;;;;;;;13.90;7.40;;;17.10;99.90;;;;;;4954656;28;20107;-57
2023/07/29 04:32:48;;;;;;;15.55;7.35;;;17.10;99.90;;;;;;4936045;28;20039;-57
2023/07/29 04:35:19;;;;;;;14.05;7.50;;;17.10;99.90;;;;;;4949125;28;20086;-58
2023/07/29 04:37:51;;;;;;;11.07;7.60;;;17.00;99.90;;;;;;4951819;28;20045;-58
2023/07/29 04:40:22;;;;;;;12.35;7.35;;;17.10;99.90;;;;;;4953657;28;20050;-56
2023/07/29 04:42:51;;;;;;;11.40;7.20;;;17.00;99.90;;;;;;4955447;28;21072;-57
2023/07/29 04:45:20;;;;;;;13.20;7.35;;;17.10;99.90;;;;;;4939554;28;20154;-56
2023/07/29 04:47:51;;;;;;;9.40;7.05;;;17.10;99.90;;;;;;4954948;28;20042;-57
2023/07/29 04:50:23;;;;;;;10.93;6.90;;;17.20;99.90;;;;;;4952284;28;20043;-57
2023/07/29 04:52:54;;;;;;;9.80;7.00;;;17.10;99.90;;;;;;4951861;28;20047;-58
2023/07/29 04:55:25;;;;;;;13.55;6.22;;;17.20;99.90;;;;;;4970452;28;20047;-59
2023/07/29 04:57:56;;;;;;;10.52;6.40;;;17.20;99.90;;;;;;4956542;28;20819;-58
2023/07/29 05:00:27;;;;;;;8.50;5.95;;;17.20;99.90;;;;;;4934500;28;20126;-57
2023/07/29 05:02:53;;;;;;;10.65;6.00;;;17.20;99.90;;;;;;4943916;28;20080;-58
2023/07/29 05:05:20;;;;;;;10.10;6.45;;;17.30;99.90;;;;;;4946696;28;20054;-56
2023/07/29 05:07:49;;;;;;;9.48;5.75;;;17.30;99.90;;;;;;4949611;28;20043;-57
2023/07/29 05:10:17;;;;;;;8.57;5.93;;;17.30;99.90;;;;;;4952193;28;20043;-58
2023/07/29 05:12:48;;;;;;;8.52;5.40;;;17.30;99.90;;;;;;4951560;28;20058;-56
2023/07/29 05:15:18;;;;;;;11.25;5.00;;;17.40;99.90;;;;;;4953036;28;20043;-58
2023/07/29 05:17:50;;;;;;;10.18;5.47;;;17.40;99.90;;;;;;4956703;28;20039;-58
2023/07/29 05:20:20;;;;;;;6.57;4.95;;;17.40;99.90;;;;;;4953769;28;20047;-57
2023/07/29 05:22:45;;;;;;;8.48;5.45;;;17.40;99.90;;;;;;4934825;28;20089;-58
2023/07/29 05:25:20;;;;;;;6.43;4.53;;;17.50;99.90;;;;;;4952787;28;20498;-58
2023/07/29 05:27:49;;;;;;;9.05;4.85;;;17.50;99.90;;;;;;4948974;28;20140;-58
2023/07/29 05:30:20;;;;;;;9.73;4.95;;;17.50;99.90;;;;;;4951606;28;20055;-58
2023/07/29 05:32:47;;;;;;;7.28;4.72;;;17.50;99.90;;;;;;4952491;28;20133;-57
2023/07/29 05:35:29;;;;;;;8.57;4.72;;;17.50;99.90;;;;;;4920408;28;20069;-57
2023/07/29 05:38:00;;;;;;;7.47;4.65;;;17.60;99.90;;;;;;4950815;28;20445;-57
2023/07/29 05:40:32;;;;;;;6.25;4.35;;;17.60;99.90;;;;;;4936498;28;20553;-57
2023/07/29 05:43:05;;;;;;;8.90;4.50;;;17.60;99.90;;;;;;4954613;28;20133;-57
2023/07/29 05:45:32;;;;;;;;;;;17.60;99.90;;;;;;4935968;28;20058;-57
2023/07/29 05:48:05;;;;;;;9.13;4.25;;;17.60;99.90;;;;;;4934159;28;19925;-57
2023/07/29 05:50:31;;;;;;;8.43;4.35;;;17.70;99.90;;;;;;4952099;28;20106;-58
2023/07/29 05:52:58;;;;;;;7.45;4.32;;;17.70;99.90;;;;;;4933386;28;20055;-57
2023/07/29 05:55:24;;;;;;;7.70;4.25;;;17.70;99.90;;;;;;4939617;28;20042;-57
2023/07/29 05:57:57;;;;;;;8.63;4.72;;;17.80;99.90;;;;;;4934563;28;20083;-55
2023/07/29 06:00:26;;;;;;;7.45;4.57;;;17.70;99.90;;;;;;4932257;28;20054;-56
2023/07/29 06:03:00;;;;;;;7.95;4.85;;;17.80;99.90;;;;;;4950518;28;20379;-57
2023/07/29 06:05:31;;;;;;;10.43;4.60;;;17.80;99.90;;;;;;4949809;28;20050;-58
2023/07/29 06:08:01;;;;;;;8.70;4.63;;;17.80;99.90;;;;;;4932987;28;20047;-58
2023/07/29 06:10:29;;;;;;;7.32;4.50;;;17.80;99.90;;;;;;4937797;28;20455;-57
2023/07/29 06:12:57;;;;;;;6.65;4.32;;;17.80;99.90;;;;;;4950386;28;20472;-58
2023/07/29 06:15:30;;;;;;;8.05;4.68;;;17.80;99.90;;;;;;4947482;28;20039;-58
2023/07/29 06:17:59;;;;;;;9.00;4.25;;;17.80;99.90;;;;;;4963572;28;20051;-58
2023/07/29 06:20:28;;;;;;;7.05;4.07;;;17.90;99.90;;;;;;4950244;28;20077;-58
2023/07/29 06:23:06;;;;;;;7.07;4.25;;;17.90;99.90;;;;;;4950199;28;20061;-58
2023/07/29 06:25:36;;;;;;;9.52;3.90;;;17.90;99.90;;;;;;4955084;28;20386;-58
2023/07/29 06:28:05;;;;;;;9.70;4.22;;;18.00;99.90;;;;;;4921023;28;20094;-57
2023/07/29 06:30:35;;;;;;;8.32;3.92;;;18.00;99.90;;;;;;4933595;28;20074;-56
2023/07/29 06:33:06;;;;;;;10.13;4.03;;;18.10;99.90;;;;;;4948355;28;20047;-57
2023/07/29 06:35:35;;;;;;;10.90;4.30;;;18.20;99.90;;;;;;4949941;28;20701;-58
2023/07/29 06:38:09;;;;;;;5.47;3.65;;;18.40;99.90;;;;;;4949636;28;20054;-57
2023/07/29 06:40:40;;;;;;;8.68;3.83;;;18.50;99.90;;;;;;4955869;28;20078;-57
2023/07/29 06:43:10;;;;;;;9.80;4.00;;;18.60;99.90;;;;;;4924871;28;20141;-57
2023/07/29 06:45:40;;;;;;;8.73;4.18;;;18.60;99.90;;;;;;4921216;28;20089;-58
2023/07/29 06:48:05;;;;;;;8.20;3.97;;;18.70;99.90;;;;;;4927023;28;20628;-58
2023/07/29 06:50:35;;;;;;;8.10;4.00;;;18.70;99.90;;;;;;4958342;28;20039;-58
2023/07/29 06:56:06;;;;;;;7.05;3.70;;;18.80;99.90;;;;;;4941845;28;20138;-58
2023/07/29 06:59:01;;;;;;;8.48;4.07;;;18.80;99.90;;;;;;4958366;28;20051;-57
2023/07/29 07:01:46;;;;;;;10.65;3.70;;;18.90;99.90;;;;;;4956752;28;20051;-57
2023/07/29 07:04:36;;;;;;;9.50;4.05;;;18.90;99.90;;;;;;4949308;28;20050;-57
2023/07/29 07:07:02;;;;;;;7.55;3.92;;;19.00;99.90;;;;;;4957934;28;20576;-57
2023/07/29 07:09:35;;;;;;;9.57;3.70;;;19.00;99.90;;;;;;4941474;28;20598;-57
2023/07/29 07:12:04;;;;;;;7.80;4.32;;;19.10;99.90;;;;;;4957211;28;20163;-58
2023/07/29 07:14:32;;;;;;;6.13;3.95;;;19.20;99.90;;;;;;4957834;28;20034;-57
2023/07/29 07:17:22;;;;;;;8.75;4.22;;;19.30;99.90;;;;;;4957556;28;20074;-57
2023/07/29 07:19:51;;;;;;;11.98;4.75;;;19.30;99.90;;;;;;4958892;28;20049;-57
2023/07/29 07:22:29;;;;;;;8.60;3.80;;;19.30;99.90;;;;;;4956966;28;20039;-58
2023/07/29 07:24:57;;;;;;;9.07;4.47;;;19.40;99.90;;;;;;4974253;28;20093;-58
2023/07/29 07:27:24;;;;;;;6.78;4.20;;;19.40;99.90;;;;;;4954841;28;20043;-57
2023/07/29 07:30:03;;;;;;;12.40;4.10;;;19.50;99.90;;;;;;4955486;28;20061;-58
2023/07/29 07:32:30;;;;;;;12.38;4.00;;;19.50;99.90;;;;;;4959000;28;20074;-58
2023/07/29 07:35:13;;;;;;;12.25;4.30;;;19.50;99.90;;;;;;4958368;28;20091;-58
2023/07/29 07:38:04;;;;;;;9.43;4.07;;;19.60;99.90;;;;;;4955893;28;20723;-58
2023/07/29 07:40:36;;;;;;;10.10;4.15;;;19.60;99.90;;;;;;4926807;28;20042;-58
2023/07/29 07:43:06;;;;;;;11.18;4.10;;;19.60;99.90;;;;;;4955877;28;20039;-58
2023/07/29 07:45:38;;;;;;;8.70;3.90;;;19.60;99.90;;;;;;4956928;28;20159;-56
2023/07/29 07:48:09;;;;;;;8.52;3.92;;;19.70;99.90;;;;;;4958774;28;20039;-58
2023/07/29 07:50:40;;;;;;;8.68;3.80;;;19.70;99.90;;;;;;4942575;28;20947;-57
2023/07/29 07:53:12;;;;;;;6.78;4.18;;;19.80;99.90;;;;;;4957416;28;20053;-58
2023/07/29 07:55:43;;;;;;;10.65;4.15;;;19.80;99.90;;;;;;4958855;28;20062;-58
2023/07/29 07:58:09;;;;;;;10.27;3.92;;;19.90;99.90;;;;;;4940635;28;20042;-58
2023/07/29 08:00:49;;;;;;;7.28;3.67;;;19.90;99.90;;;;;;4955771;28;20038;-57
2023/07/29 08:03:20;;;;;;;7.82;3.55;;;20.00;99.90;;;;;;4955726;28;20038;-58
2023/07/29 08:05:51;;;;;;;8.15;3.60;;;20.20;99.90;;;;;;4955775;28;20089;-58
2023/07/29 08:08:16;;;;;;;8.13;3.80;;;20.30;99.90;;;;;;4957320;28;20110;-57
2023/07/29 08:10:47;;;;;;;8.75;4.30;;;20.40;99.90;;;;;;4953215;28;20047;-58
2023/07/29 08:13:17;;;;;;;9.52;3.33;;;20.40;99.90;;;;;;4954575;28;20047;-55
2023/07/29 08:16:00;;;;;;;8.63;3.90;;;20.40;99.90;;;;;;4878367;29;20069;-56
2023/07/29 08:18:30;;;;;;;9.15;3.88;;;20.40;99.90;;;;;;4897889;29;20051;-57
2023/07/29 08:21:03;;;;;;;10.55;3.75;;;20.40;99.90;;;;;;4927330;28;20393;-57
2023/07/29 08:23:41;;;;;;;11.02;3.75;;;20.40;99.90;;;;;;4956555;28;20102;-58
2023/07/29 08:26:11;;;;;;;7.10;3.80;;;20.40;99.90;;;;;;4937137;28;20148;-58
2023/07/29 08:28:46;;;;;;;7.28;3.88;;;20.50;99.90;;;;;;4957706;28;20047;-58
2023/07/29 08:31:15;;;;;;;8.65;3.15;;;20.60;99.90;;;;;;4957024;28;20078;-57
2023/07/29 08:33:46;;;;;;;5.75;3.00;;;20.60;99.90;;;;;;4938663;28;20051;-57
2023/07/29 08:36:15;;;;;;;8.80;3.45;;;20.60;99.90;;;;;;4938462;28;20609;-56
2023/07/29 08:38:41;;;;;;;12.63;3.35;;;20.60;99.90;;;;;;4937934;28;20047;-56
2023/07/29 08:42:06;;;;;;;8.38;3.30;;;20.70;99.90;;;;;;4954507;28;20118;-58
2023/07/29 08:44:48;;;;;;;6.75;3.00;;;20.70;99.90;;;;;;4940862;28;20054;-56
2023/07/29 08:47:17;;;;;;;8.63;2.78;;;20.70;99.90;;;;;;4941970;28;20472;-58
2023/07/29 08:49:48;;;;;;;7.28;2.83;;;20.70;99.90;;;;;;4954533;28;20070;-57
2023/07/29 08:52:19;;;;;;;7.25;2.47;;;20.80;99.90;;;;;;4958499;28;20051;-57
2023/07/29 08:54:57;;;;;;;7.22;2.38;;;20.80;99.90;;;;;;4955397;28;20568;-57
2023/07/29 08:57:26;;;;;;;7.85;2.80;;;21.00;99.90;;;;;;4954635;28;20038;-56
2023/07/29 08:59:56;;;;;;;6.10;2.25;;;21.20;99.90;;;;;;4954370;28;20043;-58
2023/07/29 09:02:28;;;;;;;5.32;2.13;;;21.30;99.90;;;;;;4954736;28;20051;-56
2023/07/29 09:04:57;;;;;;;5.95;2.10;;;21.30;99.90;;;;;;4955758;28;20049;-57
2023/07/29 09:07:29;;;;;;;7.38;2.42;;;21.40;99.90;;;;;;4956194;28;20046;-57
2023/07/29 09:09:56;;;;;;;5.43;2.28;;;21.50;99.90;;;;;;4954079;28;20043;-57
2023/07/29 09:12:26;;;;;;;5.65;2.15;;;21.70;99.90;;;;;;4954191;28;20362;-57
2023/07/29 09:14:55;;;;;;;6.00;2.28;;;21.80;99.90;;;;;;4938707;28;20043;-57
2023/07/29 09:17:24;;;;;;;5.25;2.17;;;21.70;99.90;;;;;;4956029;28;20040;-58
2023/07/29 09:20:01;;;;;;;5.20;2.28;;;21.50;99.90;;;;;;4954332;28;20122;-57
2023/07/29 09:22:36;;;;;;;6.93;2.53;;;21.40;99.90;;;;;;4933360;28;20052;-57
2023/07/29 09:25:05;;;;;;;5.43;2.50;;;21.40;99.90;;;;;;4952611;28;20073;-56
2023/07/29 09:27:32;;;;;;;6.03;2.10;;;21.50;99.90;;;;;;4957647;28;20719;-57
2023/07/29 09:30:04;;;;;;;4.47;2.45;;;21.60;99.90;;;;;;4932686;28;20257;-57
2023/07/29 09:32:42;;;;;;;5.53;1.67;;;21.70;99.90;;;;;;4934070;28;20075;-58
2023/07/29 09:35:19;;;;;;;2.65;1.52;;;21.80;99.90;;;;;;4948154;28;20034;-58
2023/07/29 09:37:44;;;;;;;3.70;1.70;;;21.90;99.90;;;;;;4955865;28;20050;-57
2023/07/29 09:40:17;;;;;;;4.78;1.60;;;22.00;99.90;;;;;;4953516;28;20506;-58
2023/07/29 09:42:58;;;;;;;8.20;1.95;;;22.10;99.90;;;;;;4953027;28;20061;-57
2023/07/29 09:45:27;;;;;;;5.00;1.60;;;22.10;99.90;;;;;;4956385;28;20486;-58
2023/07/29 09:47:57;;;;;;;5.45;1.60;;;22.20;99.90;;;;;;4941257;28;20047;-58
2023/07/29 09:50:28;;;;;;;10.68;1.88;;;22.50;99.90;;;;;;4955311;28;20043;-57
2023/07/29 09:53:07;;;;;;;5.95;1.77;;;22.70;99.90;;;;;;4951877;28;20054;-57
2023/07/29 09:55:37;;;;;;;5.45;1.52;;;23.00;99.90;;;;;;4955960;28;20602;-57
2023/07/29 09:58:11;;;;;;;5.95;1.67;;;23.10;99.90;;;;;;4953870;28;20035;-57
2023/07/29 10:00:41;;;;;;;6.03;1.85;;;23.30;99.90;;;;;;4955382;28;20039;-58
2023/07/29 10:03:07;;;;;;;6.22;1.50;;;23.50;99.90;;;;;;4955244;28;20043;-57
2023/07/29 10:05:40;;;;;;;4.13;1.52;;;23.50;99.90;;;;;;4953074;28;20050;-58
2023/07/29 10:08:37;;;;;;;3.67;1.30;;;23.70;99.90;;;;;;4955108;28;20043;-58
2023/07/29 10:11:06;;;;;;;4.72;1.80;;;23.90;99.90;;;;;;4956311;28;20514;-57
2023/07/29 10:13:36;;;;;;;3.35;1.77;;;24.10;99.90;;;;;;4957389;28;20436;-57
2023/07/29 10:16:07;;;;;;;7.33;2.10;;;24.10;99.90;;;;;;4942680;28;20050;-58
2023/07/29 10:18:35;;;;;;;5.20;1.48;;;24.10;99.90;;;;;;4959135;28;20294;-57
2023/07/29 10:21:07;;;;;;;4.28;1.67;;;24.00;99.90;;;;;;4957985;28;20079;-58
2023/07/29 10:23:45;;;;;;;4.45;1.48;;;24.00;99.90;;;;;;4958555;28;20062;-58
2023/07/29 10:26:16;;;;;;;4.07;1.65;;;23.90;99.90;;;;;;4958965;28;20043;-58
2023/07/29 10:29:04;;;;;;;4.90;1.70;;;23.90;99.90;;;;;;4944029;28;20503;-58
2023/07/29 10:31:35;;;;;;;3.58;1.60;;;24.10;99.90;;;;;;4940706;28;20524;-58
2023/07/29 10:34:01;;;;;;;3.45;1.63;;;24.10;99.90;;;;;;4940001;28;20046;-58
2023/07/29 10:36:33;;;;;;;4.38;1.50;;;24.20;99.90;;;;;;4957170;28;20047;-58
2023/07/29 10:39:05;;;;;;;4.20;1.20;;;24.20;99.90;;;;;;4949119;28;20050;-57
2023/07/29 10:42:02;;;;;;;5.65;1.40;;;24.20;99.90;;;;;;4955907;28;20114;-57
2023/07/29 10:44:54;;;;;;;3.35;1.48;;;24.30;99.90;;;;;;4955991;28;20046;-58
2023/07/29 10:47:29;;;;;;;4.40;1.42;;;24.50;99.90;;;;;;4957634;28;20081;-58
2023/07/29 10:50:01;;;;;;;5.80;1.50;;;24.60;99.90;;;;;;4958537;28;20054;-58
2023/07/29 10:52:37;;;;;;;2.58;1.50;;;24.60;99.90;;;;;;4956945;28;20062;-58
2023/07/29 10:55:36;;;;;;;3.47;1.27;;;24.40;99.90;;;;;;4954763;28;20101;-58
2023/07/29 10:58:24;;;;;;;3.33;1.33;;;24.20;99.90;;;;;;4959098;28;20130;-58
2023/07/29 11:00:51;;;;;;;3.88;1.52;;;23.90;99.90;;;;;;4960971;28;20061;-58
2023/07/29 11:03:36;;;;;;;2.60;1.30;;;23.80;99.90;;;;;;4957445;28;20549;-58
2023/07/29 11:06:08;;;;;;;4.43;1.75;;;23.60;99.90;;;;;;4939889;28;20845;-57
2023/07/29 11:08:36;;;;;;;2.90;1.60;;;23.50;99.90;;;;;;4944794;28;20051;-58
2023/07/29 11:11:10;;;;;;;4.45;1.63;;;23.40;99.90;;;;;;4958027;28;20047;-58
2023/07/29 11:13:43;;;;;;;19.02;2.17;;;23.20;99.90;;;;;;4959324;28;20047;-57
2023/07/29 11:16:19;;;;;;;11.00;2.95;;;23.10;99.90;;;;;;4941993;28;20051;-57
2023/07/29 11:19:04;;;;;;;11.52;3.20;;;22.80;99.90;;;;;;4959354;28;20074;-57
2023/07/29 11:21:38;;;;;;;9.50;2.30;;;22.50;99.90;;;;;;4941816;28;20058;-58
2023/07/29 11:24:09;;;;;;;3.75;1.20;;;22.20;99.90;;;;;;4956748;28;20129;-58
2023/07/29 11:26:37;;;;;;;2.97;1.37;;;22.00;99.90;;;;;;4957253;28;20047;-58
2023/07/29 11:29:07;;;;;;;6.05;1.70;;;21.90;99.90;;;;;;4960236;28;20792;-58
2023/07/29 11:31:44;;;;;;;4.35;1.70;;;21.90;99.90;;;;;;4957190;28;20043;-57
2023/07/29 11:34:20;;;;;;;4.55;1.63;;;22.00;99.90;;;;;;4957776;28;20476;-59
2023/07/29 11:36:53;;;;;;;4.45;1.70;;;22.30;99.90;;;;;;4946136;28;20043;-58
2023/07/29 11:39:45;;;;;;;4.88;1.70;;;22.70;99.90;;;;;;4947809;28;20466;-57
2023/07/29 11:42:18;;;;;;;3.53;2.00;;;23.10;99.90;;;;;;4946660;28;20051;-57
2023/07/29 11:44:49;;;;;;;6.60;2.25;;;23.30;99.90;;;;;;4958078;28;20417;-58
2023/07/29 11:47:24;;;;;;;5.88;2.08;;;23.50;99.90;;;;;;4973281;28;20050;-57
2023/07/29 11:50:03;;;;;;;5.28;2.10;;;23.60;99.90;;;;;;4958992;28;20043;-58
2023/07/29 11:52:33;;;;;;;5.95;1.90;;;23.70;99.90;;;;;;4956866;28;20481;-58
2023/07/29 11:55:06;;;;;;;5.30;2.10;;;23.80;99.90;;;;;;4959827;28;20043;-57
2023/07/29 11:57:51;;;;;;;3.42;1.90;;;23.60;99.90;;;;;;4905796;28;20047;-59
2023/07/29 12:00:23;;;;;;;4.07;1.80;;;23.40;99.90;;;;;;4958426;28;20106;-58
2023/07/29 12:02:55;;;;;;;5.45;2.00;;;23.20;99.90;;;;;;4959349;28;20042;-58
2023/07/29 12:05:28;;;;;;;3.38;2.00;;;23.10;99.90;;;;;;4958980;28;20043;-59
2023/07/29 12:07:59;;;;;;;6.88;1.90;;;23.00;99.90;;;;;;4957637;28;20162;-58
2023/07/29 12:10:26;;;;;;;3.92;2.15;;;22.90;99.90;;;;;;4954111;28;20086;-59
2023/07/29 12:12:56;;;;;;;4.97;1.80;;;22.80;99.90;;;;;;4956580;28;20105;-57
2023/07/29 12:15:26;;;;;;;3.83;2.45;;;22.70;99.90;;;;;;4951074;28;20039;-58
2023/07/29 12:17:59;;;;;;;5.97;2.30;;;22.80;99.90;;;;;;4956174;28;20767;-58
2023/07/29 12:20:29;;;;;;;3.70;1.75;;;22.80;99.90;;;;;;4959366;28;20110;-58
2023/07/29 12:23:02;;;;;;;4.05;1.73;;;22.70;99.90;;;;;;4937241;28;20043;-58
2023/07/29 12:25:38;;;;;;;4.45;1.60;;;22.70;99.90;;;;;;4970664;28;20047;-58
2023/07/29 12:28:09;;;;;;;4.47;1.90;;;22.60;99.90;;;;;;4969907;28;20193;-57
2023/07/29 12:30:43;;;;;;;3.45;1.52;;;22.60;99.90;;;;;;4959482;28;20050;-58
2023/07/29 12:33:32;;;;;;;2.35;1.42;;;22.70;99.90;;;;;;4955858;28;20877;-58
2023/07/29 12:36:04;;;;;;;3.50;1.40;;;23.00;99.90;;;;;;4954013;28;20043;-57
2023/07/29 12:38:31;;;;;;;4.55;1.73;;;23.10;99.90;;;;;;4956415;28;20489;-57
2023/07/29 12:40:56;;;;;;;5.88;1.55;;;23.10;99.90;;;;;;4958441;28;20051;-58
2023/07/29 12:43:25;;;;;;;1.95;1.40;;;23.10;99.90;;;;;;4956727;28;20438;-57
2023/07/29 12:45:56;;;;;;;3.88;1.67;;;23.20;99.90;;;;;;4955123;28;20122;-58
2023/07/29 12:48:31;;;;;;;4.85;2.22;;;23.30;99.90;;;;;;4956306;28;20458;-57
2023/07/29 12:51:12;;;;;;;4.72;1.90;;;23.50;99.90;;;;;;4954638;28;20074;-59
2023/07/29 12:53:43;;;;;;;4.85;1.90;;;23.50;99.90;;;;;;4953774;28;20177;-58
2023/07/29 12:56:09;;;;;;;2.65;1.45;;;23.40;99.90;;;;;;4946379;28;20051;-58
2023/07/29 12:58:46;;;;;;;5.57;1.52;;;23.30;99.90;;;;;;4952848;28;20548;-58
2023/07/29 13:01:18;;;;;;;3.90;1.58;;;23.10;99.90;;;;;;4952687;28;20056;-58
2023/07/29 13:04:02;;;;;;;3.15;1.45;;;23.00;99.90;;;;;;4948798;28;20086;-57
2023/07/29 13:06:33;;;;;;;4.53;1.60;;;22.90;99.90;;;;;;4952929;28;20397;-57
2023/07/29 13:09:08;;;;;;;3.83;1.70;;;22.80;99.90;;;;;;4952036;28;20133;-56
2023/07/29 13:11:45;;;;;;;5.45;2.00;;;22.70;99.90;;;;;;4952741;28;20417;-58
2023/07/29 13:14:11;;;;;;;4.18;1.73;;;22.70;99.90;;;;;;4955805;28;20039;-58